sensor_id;sensor_type;location;lat;lon;timestamp;temperature;humidity
3770;DHT22;1900;48.890;9.190;2024-02-15T00:01:57;15.70;64.60
3770;DHT22;1900;48.890;9.190;2024-02-15T00:04:23;15.70;64.60
3770;DHT22;1900;48.890;9.190;2024-02-15T00:06:49;15.70;64.60
3770;DHT22;1900;48.890;9.190;2024-02-15T00:09:14;15.70;64.60
3770;DHT22;1900;48.890;9.190;2024-02-15T00:11:41;15.70;64.60
3770;DHT22;1900;48.890;9.190;2024-02-15T00:14:07;15.70;64.60
3770;DHT22;1900;48.890;9.190;2024-02-15T00:16:34;15.70;64.50
3770;DHT22;1900;48.890;9.190;2024-02-15T00:19:01;15.70;64.60
3770;DHT22;1900;48.890;9.190;2024-02-15T00:21:27;15.70;64.60
3770;DHT22;1900;48.890;9.190;2024-02-15T00:23:53;15.70;64.50
3770;DHT22;1900;48.890;9.190;2024-02-15T00:26:21;15.70;65.20
3770;DHT22;1900;48.890;9.190;2024-02-15T00:28:47;15.70;64.50
3770;DHT22;1900;48.890;9.190;2024-02-15T00:31:13;15.70;64.50
3770;DHT22;1900;48.890;9.190;2024-02-15T00:33:39;15.60;64.40
3770;DHT22;1900;48.890;9.190;2024-02-15T00:36:05;15.60;64.40
3770;DHT22;1900;48.890;9.190;2024-02-15T00:38:34;15.70;64.60
3770;DHT22;1900;48.890;9.190;2024-02-15T00:41:00;15.60;64.40
3770;DHT22;1900;48.890;9.190;2024-02-15T00:43:29;15.60;64.40
3770;DHT22;1900;48.890;9.190;2024-02-15T00:45:55;15.60;64.50
3770;DHT22;1900;48.890;9.190;2024-02-15T00:48:20;15.60;64.40
3770;DHT22;1900;48.890;9.190;2024-02-15T00:50:46;15.60;64.40
3770;DHT22;1900;48.890;9.190;2024-02-15T00:53:12;15.60;64.40
3770;DHT22;1900;48.890;9.190;2024-02-15T00:55:38;15.60;64.50
3770;DHT22;1900;48.890;9.190;2024-02-15T00:58:04;15.60;64.40
3770;DHT22;1900;48.890;9.190;2024-02-15T01:00:29;15.60;64.40
3770;DHT22;1900;48.890;9.190;2024-02-15T01:02:55;15.60;64.40
3770;DHT22;1900;48.890;9.190;2024-02-15T01:05:21;15.60;64.40
3770;DHT22;1900;48.890;9.190;2024-02-15T01:07:49;15.70;64.60
3770;DHT22;1900;48.890;9.190;2024-02-15T01:10:15;15.60;64.40
3770;DHT22;1900;48.890;9.190;2024-02-15T01:12:41;15.60;64.40
3770;DHT22;1900;48.890;9.190;2024-02-15T01:15:07;15.50;64.30
3770;DHT22;1900;48.890;9.190;2024-02-15T01:17:33;15.50;64.30
3770;DHT22;1900;48.890;9.190;2024-02-15T01:19:58;15.50;64.40
3770;DHT22;1900;48.890;9.190;2024-02-15T01:22:24;15.50;64.40
3770;DHT22;1900;48.890;9.190;2024-02-15T01:24:53;15.60;64.50
3770;DHT22;1900;48.890;9.190;2024-02-15T01:27:19;15.50;64.40
3770;DHT22;1900;48.890;9.190;2024-02-15T01:29:45;15.60;64.50
3770;DHT22;1900;48.890;9.190;2024-02-15T01:32:11;15.60;64.50
3770;DHT22;1900;48.890;9.190;2024-02-15T01:34:37;15.50;64.40
3770;DHT22;1900;48.890;9.190;2024-02-15T01:37:02;15.50;64.40
3770;DHT22;1900;48.890;9.190;2024-02-15T01:39:28;15.50;64.40
3770;DHT22;1900;48.890;9.190;2024-02-15T01:41:54;15.50;64.40
3770;DHT22;1900;48.890;9.190;2024-02-15T01:44:22;15.50;64.30
3770;DHT22;1900;48.890;9.190;2024-02-15T01:46:50;15.50;64.30
3770;DHT22;1900;48.890;9.190;2024-02-15T01:49:20;15.40;64.30
3770;DHT22;1900;48.890;9.190;2024-02-15T01:51:49;15.40;64.20
3770;DHT22;1900;48.890;9.190;2024-02-15T01:54:15;15.40;64.20
3770;DHT22;1900;48.890;9.190;2024-02-15T01:56:43;15.40;64.20
3770;DHT22;1900;48.890;9.190;2024-02-15T01:59:10;15.40;64.20
3770;DHT22;1900;48.890;9.190;2024-02-15T02:01:38;15.40;64.20
3770;DHT22;1900;48.890;9.190;2024-02-15T02:04:04;15.30;64.10
3770;DHT22;1900;48.890;9.190;2024-02-15T02:06:30;15.30;64.10
3770;DHT22;1900;48.890;9.190;2024-02-15T02:08:56;15.30;64.10
3770;DHT22;1900;48.890;9.190;2024-02-15T02:11:23;15.30;64.10
3770;DHT22;1900;48.890;9.190;2024-02-15T02:13:50;15.40;64.20
3770;DHT22;1900;48.890;9.190;2024-02-15T02:16:27;15.20;63.90
3770;DHT22;1900;48.890;9.190;2024-02-15T02:18:57;15.20;63.90
3770;DHT22;1900;48.890;9.190;2024-02-15T02:21:27;15.20;63.90
3770;DHT22;1900;48.890;9.190;2024-02-15T02:23:56;15.20;63.90
3770;DHT22;1900;48.890;9.190;2024-02-15T02:26:23;15.20;63.90
3770;DHT22;1900;48.890;9.190;2024-02-15T02:28:49;15.20;63.90
3770;DHT22;1900;48.890;9.190;2024-02-15T02:31:15;15.20;63.90
3770;DHT22;1900;48.890;9.190;2024-02-15T02:34:00;15.10;63.90
3770;DHT22;1900;48.890;9.190;2024-02-15T02:36:26;15.10;63.90
3770;DHT22;1900;48.890;9.190;2024-02-15T02:38:52;15.10;63.90
3770;DHT22;1900;48.890;9.190;2024-02-15T02:41:18;15.10;64.60
3770;DHT22;1900;48.890;9.190;2024-02-15T02:43:45;15.10;63.90
3770;DHT22;1900;48.890;9.190;2024-02-15T02:46:11;15.00;63.70
3770;DHT22;1900;48.890;9.190;2024-02-15T02:48:40;15.00;63.70
3770;DHT22;1900;48.890;9.190;2024-02-15T02:51:07;15.00;63.70
3770;DHT22;1900;48.890;9.190;2024-02-15T02:53:33;15.00;63.70
3770;DHT22;1900;48.890;9.190;2024-02-15T02:55:59;15.00;63.70
3770;DHT22;1900;48.890;9.190;2024-02-15T02:58:25;14.90;63.70
3770;DHT22;1900;48.890;9.190;2024-02-15T03:00:51;14.90;63.70
3770;DHT22;1900;48.890;9.190;2024-02-15T03:03:17;14.90;63.70
3770;DHT22;1900;48.890;9.190;2024-02-15T03:05:48;14.90;63.60
3770;DHT22;1900;48.890;9.190;2024-02-15T03:08:14;14.90;63.70
3770;DHT22;1900;48.890;9.190;2024-02-15T03:10:42;15.00;63.80
3770;DHT22;1900;48.890;9.190;2024-02-15T03:13:08;14.80;63.60
3770;DHT22;1900;48.890;9.190;2024-02-15T03:15:37;14.80;63.60
3770;DHT22;1900;48.890;9.190;2024-02-15T03:18:03;14.80;63.60
3770;DHT22;1900;48.890;9.190;2024-02-15T03:20:33;14.80;63.60
3770;DHT22;1900;48.890;9.190;2024-02-15T03:23:00;14.80;63.60
3770;DHT22;1900;48.890;9.190;2024-02-15T03:25:27;14.70;63.50
3770;DHT22;1900;48.890;9.190;2024-02-15T03:27:58;14.70;63.50
3770;DHT22;1900;48.890;9.190;2024-02-15T03:30:30;14.70;63.50
3770;DHT22;1900;48.890;9.190;2024-02-15T03:32:57;14.70;63.50
3770;DHT22;1900;48.890;9.190;2024-02-15T03:35:25;14.70;63.50
3770;DHT22;1900;48.890;9.190;2024-02-15T03:37:52;14.70;63.50
3770;DHT22;1900;48.890;9.190;2024-02-15T03:40:22;14.60;63.40
3770;DHT22;1900;48.890;9.190;2024-02-15T03:42:48;14.60;63.40
3770;DHT22;1900;48.890;9.190;2024-02-15T03:45:16;14.60;63.40
3770;DHT22;1900;48.890;9.190;2024-02-15T03:47:41;14.60;63.40
3770;DHT22;1900;48.890;9.190;2024-02-15T03:50:08;14.60;63.40
3770;DHT22;1900;48.890;9.190;2024-02-15T03:52:40;14.60;63.50
3770;DHT22;1900;48.890;9.190;2024-02-15T03:55:06;14.60;63.60
3770;DHT22;1900;48.890;9.190;2024-02-15T03:57:40;14.60;63.60
3770;DHT22;1900;48.890;9.190;2024-02-15T04:00:07;14.60;63.70
3770;DHT22;1900;48.890;9.190;2024-02-15T04:02:35;14.50;63.60
3770;DHT22;1900;48.890;9.190;2024-02-15T04:05:01;14.50;63.60
3770;DHT22;1900;48.890;9.190;2024-02-15T04:07:27;14.50;63.50
3770;DHT22;1900;48.890;9.190;2024-02-15T04:09:53;14.50;63.50
3770;DHT22;1900;48.890;9.190;2024-02-15T04:12:19;14.50;63.40
3770;DHT22;1900;48.890;9.190;2024-02-15T04:14:45;14.50;63.40
3770;DHT22;1900;48.890;9.190;2024-02-15T04:17:15;14.40;63.30
3770;DHT22;1900;48.890;9.190;2024-02-15T04:19:47;14.40;63.40
3770;DHT22;1900;48.890;9.190;2024-02-15T04:22:13;14.50;63.50
3770;DHT22;1900;48.890;9.190;2024-02-15T04:24:43;14.40;63.50
3770;DHT22;1900;48.890;9.190;2024-02-15T04:27:10;14.40;63.50
3770;DHT22;1900;48.890;9.190;2024-02-15T04:29:46;14.40;63.60
3770;DHT22;1900;48.890;9.190;2024-02-15T04:32:12;14.40;63.70
3770;DHT22;1900;48.890;9.190;2024-02-15T04:34:39;14.40;63.70
3770;DHT22;1900;48.890;9.190;2024-02-15T04:37:05;14.40;63.70
3770;DHT22;1900;48.890;9.190;2024-02-15T04:39:36;14.40;63.70
3770;DHT22;1900;48.890;9.190;2024-02-15T04:42:03;14.40;63.70
3770;DHT22;1900;48.890;9.190;2024-02-15T04:44:31;14.40;63.70
3770;DHT22;1900;48.890;9.190;2024-02-15T04:47:01;14.40;63.60
3770;DHT22;1900;48.890;9.190;2024-02-15T04:49:30;14.40;63.70
3770;DHT22;1900;48.890;9.190;2024-02-15T04:51:56;14.40;63.70
3770;DHT22;1900;48.890;9.190;2024-02-15T04:54:27;14.40;63.80
3770;DHT22;1900;48.890;9.190;2024-02-15T04:56:52;14.40;63.80
3770;DHT22;1900;48.890;9.190;2024-02-15T04:59:20;14.40;63.80
3770;DHT22;1900;48.890;9.190;2024-02-15T05:01:47;14.40;63.80
3770;DHT22;1900;48.890;9.190;2024-02-15T05:04:14;14.40;63.80
3770;DHT22;1900;48.890;9.190;2024-02-15T05:06:40;14.40;63.70
3770;DHT22;1900;48.890;9.190;2024-02-15T05:09:06;14.40;63.70
3770;DHT22;1900;48.890;9.190;2024-02-15T05:11:42;14.40;63.70
3770;DHT22;1900;48.890;9.190;2024-02-15T05:14:13;14.40;63.70
3770;DHT22;1900;48.890;9.190;2024-02-15T05:16:45;14.40;63.70
3770;DHT22;1900;48.890;9.190;2024-02-15T05:19:16;14.40;63.80
3770;DHT22;1900;48.890;9.190;2024-02-15T05:21:42;14.40;63.70
3770;DHT22;1900;48.890;9.190;2024-02-15T05:24:15;14.40;63.80
3770;DHT22;1900;48.890;9.190;2024-02-15T05:26:43;14.40;63.80
3770;DHT22;1900;48.890;9.190;2024-02-15T05:29:10;14.40;63.90
3770;DHT22;1900;48.890;9.190;2024-02-15T05:31:36;14.40;63.90
3770;DHT22;1900;48.890;9.190;2024-02-15T05:34:05;14.40;63.90
3770;DHT22;1900;48.890;9.190;2024-02-15T05:36:33;14.50;64.10
3770;DHT22;1900;48.890;9.190;2024-02-15T05:38:59;14.50;64.10
3770;DHT22;1900;48.890;9.190;2024-02-15T05:41:25;14.50;64.10
3770;DHT22;1900;48.890;9.190;2024-02-15T05:43:52;14.50;64.20
3770;DHT22;1900;48.890;9.190;2024-02-15T05:46:18;14.50;64.20
3770;DHT22;1900;48.890;9.190;2024-02-15T05:48:47;14.50;64.20
3770;DHT22;1900;48.890;9.190;2024-02-15T05:51:13;14.50;64.20
3770;DHT22;1900;48.890;9.190;2024-02-15T05:53:38;14.50;64.10
3770;DHT22;1900;48.890;9.190;2024-02-15T05:56:05;14.50;64.10
3770;DHT22;1900;48.890;9.190;2024-02-15T05:58:32;14.60;64.20
3770;DHT22;1900;48.890;9.190;2024-02-15T06:01:02;14.50;64.10
3770;DHT22;1900;48.890;9.190;2024-02-15T06:03:28;14.60;64.20
3770;DHT22;1900;48.890;9.190;2024-02-15T06:05:54;14.60;64.10
3770;DHT22;1900;48.890;9.190;2024-02-15T06:08:28;14.60;64.10
3770;DHT22;1900;48.890;9.190;2024-02-15T06:10:57;14.60;64.10
3770;DHT22;1900;48.890;9.190;2024-02-15T06:13:23;14.50;63.90
3770;DHT22;1900;48.890;9.190;2024-02-15T06:15:50;14.50;63.90
3770;DHT22;1900;48.890;9.190;2024-02-15T06:18:20;14.50;63.90
3770;DHT22;1900;48.890;9.190;2024-02-15T06:20:55;14.50;63.90
3770;DHT22;1900;48.890;9.190;2024-02-15T06:23:23;14.50;63.90
3770;DHT22;1900;48.890;9.190;2024-02-15T06:25:51;14.50;63.90
3770;DHT22;1900;48.890;9.190;2024-02-15T06:28:38;14.50;63.90
3770;DHT22;1900;48.890;9.190;2024-02-15T06:31:22;14.50;63.90
3770;DHT22;1900;48.890;9.190;2024-02-15T06:34:06;14.50;63.90
3770;DHT22;1900;48.890;9.190;2024-02-15T06:36:53;14.40;63.70
3770;DHT22;1900;48.890;9.190;2024-02-15T06:39:37;14.40;63.70
3770;DHT22;1900;48.890;9.190;2024-02-15T06:42:14;14.40;63.70
3770;DHT22;1900;48.890;9.190;2024-02-15T06:44:43;14.40;63.70
3770;DHT22;1900;48.890;9.190;2024-02-15T06:47:09;14.40;63.80
3770;DHT22;1900;48.890;9.190;2024-02-15T06:49:39;14.30;63.70
3770;DHT22;1900;48.890;9.190;2024-02-15T06:52:09;14.30;63.70
3770;DHT22;1900;48.890;9.190;2024-02-15T06:54:35;14.30;63.70
3770;DHT22;1900;48.890;9.190;2024-02-15T06:57:02;14.30;63.70
3770;DHT22;1900;48.890;9.190;2024-02-15T06:59:28;14.30;63.70
3770;DHT22;1900;48.890;9.190;2024-02-15T07:01:54;14.30;63.80
3770;DHT22;1900;48.890;9.190;2024-02-15T07:04:21;14.30;63.90
3770;DHT22;1900;48.890;9.190;2024-02-15T07:06:47;14.30;63.90
3770;DHT22;1900;48.890;9.190;2024-02-15T07:09:15;14.30;63.90
3770;DHT22;1900;48.890;9.190;2024-02-15T07:11:41;14.30;64.00
3770;DHT22;1900;48.890;9.190;2024-02-15T07:14:07;14.30;64.00
3770;DHT22;1900;48.890;9.190;2024-02-15T07:16:34;14.30;64.10
3770;DHT22;1900;48.890;9.190;2024-02-15T07:19:00;14.30;64.00
3770;DHT22;1900;48.890;9.190;2024-02-15T07:21:26;14.40;64.10
3770;DHT22;1900;48.890;9.190;2024-02-15T07:23:53;14.40;64.10
3770;DHT22;1900;48.890;9.190;2024-02-15T07:26:21;14.40;64.10
3770;DHT22;1900;48.890;9.190;2024-02-15T07:28:54;14.40;64.10
3770;DHT22;1900;48.890;9.190;2024-02-15T07:31:38;14.40;64.20
3770;DHT22;1900;48.890;9.190;2024-02-15T07:34:04;14.40;64.10
3770;DHT22;1900;48.890;9.190;2024-02-15T07:36:30;14.40;64.10
3770;DHT22;1900;48.890;9.190;2024-02-15T07:38:56;14.40;64.10
3770;DHT22;1900;48.890;9.190;2024-02-15T07:41:26;14.40;64.10
3770;DHT22;1900;48.890;9.190;2024-02-15T07:43:53;14.40;64.10
3770;DHT22;1900;48.890;9.190;2024-02-15T07:46:21;14.40;64.10
3770;DHT22;1900;48.890;9.190;2024-02-15T07:48:47;14.40;64.10
3770;DHT22;1900;48.890;9.190;2024-02-15T07:51:14;14.40;64.10
3770;DHT22;1900;48.890;9.190;2024-02-15T07:53:41;14.40;64.10
3770;DHT22;1900;48.890;9.190;2024-02-15T07:56:12;14.40;64.10
3770;DHT22;1900;48.890;9.190;2024-02-15T07:58:48;14.40;64.10
3770;DHT22;1900;48.890;9.190;2024-02-15T08:01:15;14.40;64.20
3770;DHT22;1900;48.890;9.190;2024-02-15T08:03:42;14.40;64.20
3770;DHT22;1900;48.890;9.190;2024-02-15T08:06:11;14.40;64.20
3770;DHT22;1900;48.890;9.190;2024-02-15T08:08:39;14.40;64.30
3770;DHT22;1900;48.890;9.190;2024-02-15T08:11:07;14.40;64.40
3770;DHT22;1900;48.890;9.190;2024-02-15T08:13:51;14.50;64.50
3770;DHT22;1900;48.890;9.190;2024-02-15T08:16:21;14.50;64.50
3770;DHT22;1900;48.890;9.190;2024-02-15T08:18:50;14.50;64.50
3770;DHT22;1900;48.890;9.190;2024-02-15T08:21:28;14.50;64.50
3770;DHT22;1900;48.890;9.190;2024-02-15T08:23:55;14.60;64.70
3770;DHT22;1900;48.890;9.190;2024-02-15T08:26:21;14.60;64.70
3770;DHT22;1900;48.890;9.190;2024-02-15T08:28:47;14.60;64.70
3770;DHT22;1900;48.890;9.190;2024-02-15T08:31:13;14.60;64.70
3770;DHT22;1900;48.890;9.190;2024-02-15T08:33:41;14.60;64.80
3770;DHT22;1900;48.890;9.190;2024-02-15T08:36:08;14.60;64.80
3770;DHT22;1900;48.890;9.190;2024-02-15T08:38:36;14.60;64.80
3770;DHT22;1900;48.890;9.190;2024-02-15T08:41:03;14.70;64.90
3770;DHT22;1900;48.890;9.190;2024-02-15T08:43:33;14.70;64.90
3770;DHT22;1900;48.890;9.190;2024-02-15T08:45:59;14.70;64.90
3770;DHT22;1900;48.890;9.190;2024-02-15T08:48:26;14.80;65.00
3770;DHT22;1900;48.890;9.190;2024-02-15T08:50:52;14.80;65.00
3770;DHT22;1900;48.890;9.190;2024-02-15T08:53:18;14.80;65.00
3770;DHT22;1900;48.890;9.190;2024-02-15T08:55:48;14.80;65.00
3770;DHT22;1900;48.890;9.190;2024-02-15T08:58:14;14.90;65.10
3770;DHT22;1900;48.890;9.190;2024-02-15T09:00:39;14.90;65.10
3770;DHT22;1900;48.890;9.190;2024-02-15T09:03:13;14.90;65.10
3770;DHT22;1900;48.890;9.190;2024-02-15T09:05:40;15.00;65.30
3770;DHT22;1900;48.890;9.190;2024-02-15T09:08:07;15.00;65.30
3770;DHT22;1900;48.890;9.190;2024-02-15T09:10:32;15.00;65.30
3770;DHT22;1900;48.890;9.190;2024-02-15T09:12:58;15.00;65.30
3770;DHT22;1900;48.890;9.190;2024-02-15T09:15:24;15.10;65.30
3770;DHT22;1900;48.890;9.190;2024-02-15T09:17:51;15.10;65.40
3770;DHT22;1900;48.890;9.190;2024-02-15T09:20:17;15.20;65.50
3770;DHT22;1900;48.890;9.190;2024-02-15T09:22:50;15.10;65.30
3770;DHT22;1900;48.890;9.190;2024-02-15T09:25:17;15.20;65.30
3770;DHT22;1900;48.890;9.190;2024-02-15T09:27:44;15.20;65.20
3770;DHT22;1900;48.890;9.190;2024-02-15T09:30:10;15.20;65.30
3770;DHT22;1900;48.890;9.190;2024-02-15T09:32:37;15.20;65.30
3770;DHT22;1900;48.890;9.190;2024-02-15T09:35:04;15.30;65.50
3770;DHT22;1900;48.890;9.190;2024-02-15T09:37:36;15.30;65.50
3770;DHT22;1900;48.890;9.190;2024-02-15T09:40:11;15.30;65.50
3770;DHT22;1900;48.890;9.190;2024-02-15T09:42:38;15.40;65.60
3770;DHT22;1900;48.890;9.190;2024-02-15T09:45:06;15.40;65.60
3770;DHT22;1900;48.890;9.190;2024-02-15T09:47:36;15.50;65.80
3770;DHT22;1900;48.890;9.190;2024-02-15T09:50:12;15.50;66.00
3770;DHT22;1900;48.890;9.190;2024-02-15T09:52:49;15.60;66.10
3770;DHT22;1900;48.890;9.190;2024-02-15T09:55:15;15.60;66.20
3770;DHT22;1900;48.890;9.190;2024-02-15T09:57:42;15.70;66.50
3770;DHT22;1900;48.890;9.190;2024-02-15T10:00:09;15.80;66.60
3770;DHT22;1900;48.890;9.190;2024-02-15T10:02:50;15.80;66.70
3770;DHT22;1900;48.890;9.190;2024-02-15T10:05:17;15.90;66.70
3770;DHT22;1900;48.890;9.190;2024-02-15T10:07:44;16.00;66.80
3770;DHT22;1900;48.890;9.190;2024-02-15T10:12:43;16.10;67.00
3770;DHT22;1900;48.890;9.190;2024-02-15T10:15:34;16.20;67.20
3770;DHT22;1900;48.890;9.190;2024-02-15T10:18:02;16.30;67.30
3770;DHT22;1900;48.890;9.190;2024-02-15T10:20:28;16.40;67.50
3770;DHT22;1900;48.890;9.190;2024-02-15T10:25:29;16.60;67.80
3770;DHT22;1900;48.890;9.190;2024-02-15T10:28:11;16.70;68.10
3770;DHT22;1900;48.890;9.190;2024-02-15T10:30:43;16.80;68.20
3770;DHT22;1900;48.890;9.190;2024-02-15T10:33:09;16.90;68.40
3770;DHT22;1900;48.890;9.190;2024-02-15T10:35:36;17.00;68.50
3770;DHT22;1900;48.890;9.190;2024-02-15T10:38:09;17.10;68.60
3770;DHT22;1900;48.890;9.190;2024-02-15T10:40:39;17.20;68.70
3770;DHT22;1900;48.890;9.190;2024-02-15T10:43:09;17.30;68.80
3770;DHT22;1900;48.890;9.190;2024-02-15T10:45:37;17.40;68.90
3770;DHT22;1900;48.890;9.190;2024-02-15T10:48:07;17.50;68.90
3770;DHT22;1900;48.890;9.190;2024-02-15T10:50:33;17.60;69.00
3770;DHT22;1900;48.890;9.190;2024-02-15T10:53:00;17.70;69.10
3770;DHT22;1900;48.890;9.190;2024-02-15T10:55:53;17.90;69.40
3770;DHT22;1900;48.890;9.190;2024-02-15T10:58:26;18.00;69.30
3770;DHT22;1900;48.890;9.190;2024-02-15T11:00:59;18.10;69.40
3770;DHT22;1900;48.890;9.190;2024-02-15T11:03:38;18.20;69.40
3770;DHT22;1900;48.890;9.190;2024-02-15T11:06:07;18.30;69.50
3770;DHT22;1900;48.890;9.190;2024-02-15T11:08:35;18.40;69.70
3770;DHT22;1900;48.890;9.190;2024-02-15T11:11:01;18.50;69.90
3770;DHT22;1900;48.890;9.190;2024-02-15T11:13:30;18.60;70.10
3770;DHT22;1900;48.890;9.190;2024-02-15T11:15:56;18.80;70.30
3770;DHT22;1900;48.890;9.190;2024-02-15T11:21:12;19.10;70.30
3770;DHT22;1900;48.890;9.190;2024-02-15T11:23:38;19.20;71.00
3770;DHT22;1900;48.890;9.190;2024-02-15T11:26:08;19.30;70.50
3770;DHT22;1900;48.890;9.190;2024-02-15T11:28:38;19.40;70.60
3770;DHT22;1900;48.890;9.190;2024-02-15T11:31:08;19.50;70.80
3770;DHT22;1900;48.890;9.190;2024-02-15T11:33:36;19.70;71.10
3770;DHT22;1900;48.890;9.190;2024-02-15T11:36:06;19.80;71.40
3770;DHT22;1900;48.890;9.190;2024-02-15T11:38:32;19.90;71.50
3770;DHT22;1900;48.890;9.190;2024-02-15T11:41:06;20.10;71.50
3770;DHT22;1900;48.890;9.190;2024-02-15T11:43:47;20.20;71.30
3770;DHT22;1900;48.890;9.190;2024-02-15T11:46:25;20.30;71.00
3770;DHT22;1900;48.890;9.190;2024-02-15T11:48:52;20.40;71.20
3770;DHT22;1900;48.890;9.190;2024-02-15T11:54:21;20.60;71.30
3770;DHT22;1900;48.890;9.190;2024-02-15T11:56:56;20.70;71.20
3770;DHT22;1900;48.890;9.190;2024-02-15T11:59:43;20.80;71.30
3770;DHT22;1900;48.890;9.190;2024-02-15T12:02:32;20.90;71.40
3770;DHT22;1900;48.890;9.190;2024-02-15T12:05:17;21.00;71.20
3770;DHT22;1900;48.890;9.190;2024-02-15T12:08:01;21.00;70.70
3770;DHT22;1900;48.890;9.190;2024-02-15T12:10:59;21.10;70.40
3770;DHT22;1900;48.890;9.190;2024-02-15T12:13:50;21.10;69.90
3770;DHT22;1900;48.890;9.190;2024-02-15T12:16:35;21.10;69.90
3770;DHT22;1900;48.890;9.190;2024-02-15T12:19:20;21.20;69.80
3770;DHT22;1900;48.890;9.190;2024-02-15T12:21:47;21.10;69.70
3770;DHT22;1900;48.890;9.190;2024-02-15T12:24:14;21.20;70.00
3770;DHT22;1900;48.890;9.190;2024-02-15T12:26:42;21.20;70.00
3770;DHT22;1900;48.890;9.190;2024-02-15T12:29:08;21.30;70.10
3770;DHT22;1900;48.890;9.190;2024-02-15T12:31:36;21.30;70.10
3770;DHT22;1900;48.890;9.190;2024-02-15T12:34:04;21.30;70.10
3770;DHT22;1900;48.890;9.190;2024-02-15T12:36:34;21.30;70.00
3770;DHT22;1900;48.890;9.190;2024-02-15T12:39:03;21.40;70.00
3770;DHT22;1900;48.890;9.190;2024-02-15T12:41:40;21.40;69.80
3770;DHT22;1900;48.890;9.190;2024-02-15T12:44:07;21.40;69.80
3770;DHT22;1900;48.890;9.190;2024-02-15T12:46:36;21.40;69.80
3770;DHT22;1900;48.890;9.190;2024-02-15T12:49:27;21.40;70.10
3770;DHT22;1900;48.890;9.190;2024-02-15T12:51:54;21.50;69.40
3770;DHT22;1900;48.890;9.190;2024-02-15T12:54:39;21.40;69.50
3770;DHT22;1900;48.890;9.190;2024-02-15T12:57:10;21.40;69.50
3770;DHT22;1900;48.890;9.190;2024-02-15T12:59:37;21.40;69.40
3770;DHT22;1900;48.890;9.190;2024-02-15T13:02:04;21.40;69.40
3770;DHT22;1900;48.890;9.190;2024-02-15T13:04:29;21.40;69.20
3770;DHT22;1900;48.890;9.190;2024-02-15T13:06:55;21.40;69.10
3770;DHT22;1900;48.890;9.190;2024-02-15T13:09:21;21.40;69.10
3770;DHT22;1900;48.890;9.190;2024-02-15T13:11:48;21.40;68.90
3770;DHT22;1900;48.890;9.190;2024-02-15T13:14:15;21.40;69.10
3770;DHT22;1900;48.890;9.190;2024-02-15T13:16:41;21.40;69.10
3770;DHT22;1900;48.890;9.190;2024-02-15T13:19:09;21.40;69.00
3770;DHT22;1900;48.890;9.190;2024-02-15T13:21:34;21.40;68.80
3770;DHT22;1900;48.890;9.190;2024-02-15T13:24:00;21.40;68.60
3770;DHT22;1900;48.890;9.190;2024-02-15T13:26:32;21.40;68.70
3770;DHT22;1900;48.890;9.190;2024-02-15T13:28:59;21.40;68.70
3770;DHT22;1900;48.890;9.190;2024-02-15T13:31:25;21.40;68.80
3770;DHT22;1900;48.890;9.190;2024-02-15T13:33:53;21.40;68.90
3770;DHT22;1900;48.890;9.190;2024-02-15T13:36:18;21.40;69.00
3770;DHT22;1900;48.890;9.190;2024-02-15T13:38:45;21.40;68.90
3770;DHT22;1900;48.890;9.190;2024-02-15T13:41:11;21.50;69.10
3770;DHT22;1900;48.890;9.190;2024-02-15T13:43:37;21.50;69.10
3770;DHT22;1900;48.890;9.190;2024-02-15T13:46:04;21.50;69.10
3770;DHT22;1900;48.890;9.190;2024-02-15T13:48:31;21.50;69.00
3770;DHT22;1900;48.890;9.190;2024-02-15T13:50:57;21.60;69.10
3770;DHT22;1900;48.890;9.190;2024-02-15T13:53:23;21.60;69.20
3770;DHT22;1900;48.890;9.190;2024-02-15T13:55:49;21.60;69.80
3770;DHT22;1900;48.890;9.190;2024-02-15T13:58:19;21.60;69.00
3770;DHT22;1900;48.890;9.190;2024-02-15T14:00:45;21.70;68.90
3770;DHT22;1900;48.890;9.190;2024-02-15T14:03:11;21.60;68.70
3770;DHT22;1900;48.890;9.190;2024-02-15T14:05:37;21.60;68.70
3770;DHT22;1900;48.890;9.190;2024-02-15T14:08:05;21.70;68.70
3770;DHT22;1900;48.890;9.190;2024-02-15T14:10:34;21.70;68.50
3770;DHT22;1900;48.890;9.190;2024-02-15T14:13:03;21.60;68.30
3770;DHT22;1900;48.890;9.190;2024-02-15T14:15:30;21.60;68.40
3770;DHT22;1900;48.890;9.190;2024-02-15T14:17:56;21.60;68.10
3770;DHT22;1900;48.890;9.190;2024-02-15T14:20:22;21.60;67.80
3770;DHT22;1900;48.890;9.190;2024-02-15T14:22:49;21.60;67.70
3770;DHT22;1900;48.890;9.190;2024-02-15T14:25:24;21.50;67.80
3770;DHT22;1900;48.890;9.190;2024-02-15T14:27:57;21.50;67.90
3770;DHT22;1900;48.890;9.190;2024-02-15T14:30:26;21.50;68.00
3770;DHT22;1900;48.890;9.190;2024-02-15T14:33:11;21.40;67.80
3770;DHT22;1900;48.890;9.190;2024-02-15T14:35:41;21.40;67.80
3770;DHT22;1900;48.890;9.190;2024-02-15T14:38:09;21.40;67.80
3770;DHT22;1900;48.890;9.190;2024-02-15T14:40:44;21.40;67.70
3770;DHT22;1900;48.890;9.190;2024-02-15T14:43:22;21.40;67.60
3770;DHT22;1900;48.890;9.190;2024-02-15T14:45:48;21.30;67.40
3770;DHT22;1900;48.890;9.190;2024-02-15T14:48:15;21.30;67.20
3770;DHT22;1900;48.890;9.190;2024-02-15T14:50:44;21.20;67.10
3770;DHT22;1900;48.890;9.190;2024-02-15T14:53:10;21.20;67.20
3770;DHT22;1900;48.890;9.190;2024-02-15T14:55:36;21.20;67.20
3770;DHT22;1900;48.890;9.190;2024-02-15T14:58:06;21.20;67.20
3770;DHT22;1900;48.890;9.190;2024-02-15T15:00:34;21.20;67.30
3770;DHT22;1900;48.890;9.190;2024-02-15T15:02:59;21.10;67.20
3770;DHT22;1900;48.890;9.190;2024-02-15T15:05:25;21.20;67.30
3770;DHT22;1900;48.890;9.190;2024-02-15T15:08:10;21.10;67.10
3770;DHT22;1900;48.890;9.190;2024-02-15T15:10:55;21.10;67.10
3770;DHT22;1900;48.890;9.190;2024-02-15T15:13:39;21.10;67.20
3770;DHT22;1900;48.890;9.190;2024-02-15T15:16:06;21.10;67.30
3770;DHT22;1900;48.890;9.190;2024-02-15T15:18:33;21.10;67.30
3770;DHT22;1900;48.890;9.190;2024-02-15T15:21:02;21.10;67.30
3770;DHT22;1900;48.890;9.190;2024-02-15T15:23:28;21.10;67.20
3770;DHT22;1900;48.890;9.190;2024-02-15T15:25:57;21.10;67.20
3770;DHT22;1900;48.890;9.190;2024-02-15T15:28:24;21.10;67.20
3770;DHT22;1900;48.890;9.190;2024-02-15T15:30:50;21.00;67.00
3770;DHT22;1900;48.890;9.190;2024-02-15T15:33:17;21.00;66.80
3770;DHT22;1900;48.890;9.190;2024-02-15T15:35:44;21.00;66.70
3770;DHT22;1900;48.890;9.190;2024-02-15T15:38:10;20.90;66.60
3770;DHT22;1900;48.890;9.190;2024-02-15T15:40:36;20.90;66.50
3770;DHT22;1900;48.890;9.190;2024-02-15T15:43:02;20.90;66.50
3770;DHT22;1900;48.890;9.190;2024-02-15T15:45:33;20.90;66.50
3770;DHT22;1900;48.890;9.190;2024-02-15T15:47:58;20.80;66.40
3770;DHT22;1900;48.890;9.190;2024-02-15T15:50:26;20.80;66.40
3770;DHT22;1900;48.890;9.190;2024-02-15T15:52:54;20.80;66.40
3770;DHT22;1900;48.890;9.190;2024-02-15T15:55:20;20.80;66.30
3770;DHT22;1900;48.890;9.190;2024-02-15T15:57:45;20.80;66.30
3770;DHT22;1900;48.890;9.190;2024-02-15T16:00:12;20.70;66.20
3770;DHT22;1900;48.890;9.190;2024-02-15T16:02:43;20.70;66.10
3770;DHT22;1900;48.890;9.190;2024-02-15T16:05:14;20.70;66.00
3770;DHT22;1900;48.890;9.190;2024-02-15T16:07:44;20.60;65.90
3770;DHT22;1900;48.890;9.190;2024-02-15T16:10:11;20.60;65.80
3770;DHT22;1900;48.890;9.190;2024-02-15T16:12:37;20.50;65.80
3770;DHT22;1900;48.890;9.190;2024-02-15T16:15:05;20.50;65.70
3770;DHT22;1900;48.890;9.190;2024-02-15T16:17:33;20.50;65.70
3770;DHT22;1900;48.890;9.190;2024-02-15T16:20:03;20.40;65.60
3770;DHT22;1900;48.890;9.190;2024-02-15T16:22:49;20.40;65.60
3770;DHT22;1900;48.890;9.190;2024-02-15T16:25:16;20.30;65.50